This is the latest recevied weather packets stored in our database for station/object KI7MOQ. If no packets are shown the sender has not sent any weather packets the latest 10 day(s).
| Time | Temp. | Humidity | Pressure | Rain* | Wind** | Luminosity | Snow |
|---|---|---|---|---|---|---|---|
| 1778192193 | 18.89° C | 44% | 1020.4 hPa | 0 mm | - | 28 W/m² | - |
| 1778191889 | 18.89° C | 43% | 1020.5 hPa | 0 mm | - | 28 W/m² | - |
| 1778191586 | 18.89° C | 45% | 1020.7 hPa | 0 mm | - | 27 W/m² | - |
| 1778191285 | 18.89° C | 44% | 1020.6 hPa | 0 mm | - | 33 W/m² | - |
| 1778190980 | 18.89° C | 40% | 1020.8 hPa | 0 mm | - | 186 W/m² | - |
| 1778190678 | 18.89° C | 37% | 1020.6 hPa | 0 mm | - | 245 W/m² | - |
| 1778190375 | 18.33° C | 42% | 1020.7 hPa | 0 mm | - | 34 W/m² | - |
| 1778190071 | 18.33° C | 43% | 1020.8 hPa | 0 mm | - | 31 W/m² | - |
| 1778189768 | 18.33° C | 48% | 1020.8 hPa | 0 mm | - | 39 W/m² | - |
| 1778189465 | 18.33° C | 48% | 1021 hPa | 0 mm | - | 27 W/m² | - |
| 1778189161 | 17.78° C | 48% | 1021.1 hPa | 0 mm | - | 30 W/m² | - |
| 1778188858 | 17.78° C | 49% | 1021.1 hPa | 0 mm | - | 35 W/m² | - |
| 1778188554 | 17.78° C | 48% | 1021.1 hPa | 0 mm | - | 31 W/m² | - |
| 1778188250 | 17.78° C | 47% | 1021.2 hPa | 0 mm | - | 37 W/m² | - |
| 1778187948 | 17.78° C | 49% | 1021.3 hPa | 0 mm | - | 36 W/m² | - |
| 1778187644 | 17.22° C | 49% | 1021.3 hPa | 0 mm | - | 38 W/m² | - |
| 1778187341 | 17.78° C | 48% | 1021.4 hPa | 0 mm | - | 39 W/m² | - |
| 1778187037 | 17.78° C | 51% | 1021.3 hPa | 0 mm | - | 41 W/m² | - |
| 1778186734 | 17.78° C | 50% | 1021.5 hPa | 0 mm | - | 39 W/m² | - |
| 1778186431 | 17.22° C | 51% | 1021.5 hPa | 0 mm | - | 45 W/m² | - |
| 1778186129 | 16.67° C | 51% | 1021.5 hPa | 0 mm | - | 50 W/m² | - |
| 1778185826 | 17.22° C | 49% | 1021.6 hPa | 0 mm | - | 55 W/m² | - |
| 1778185522 | 17.78° C | 51% | 1021.8 hPa | 0 mm | - | 56 W/m² | - |
| 1778185218 | 17.22° C | 52% | 1021.9 hPa | 0 mm | - | 54 W/m² | - |
| 1778184914 | 17.22° C | 53% | 1021.8 hPa | 0 mm | - | 53 W/m² | - |
* Rain latest hour (hover to see other rain measurements)
** Current wind speed in m/s (hover to see current wind gust speed)